Time;durP1;ratioP1;P1;durP2;ratioP2;P2;SDS_P1;SDS_P2;PMS_P1;PMS_P2;Temp;Humidity;BMP_temperature;BMP_pressure;BME280_temperature;BME280_humidity;BME280_pressure;Samples;Min_cycle;Max_cycle;Signal;HPM_P1;HPM_P2
2023/07/30 00:00:03;;;;;;;5.68;2.90;;;;;;;20.02;60.32;99042.03;6265573;22;19995;-89
2023/07/30 00:02:28;;;;;;;5.70;2.80;;;;;;;20.18;60.56;99056.66;6265761;22;19994;-90
2023/07/30 00:04:55;;;;;;;5.75;3.17;;;;;;;20.06;60.94;99050.38;6263240;22;20006;-90
2023/07/30 00:07:20;;;;;;;4.47;2.83;;;;;;;20.06;61.09;99050.38;6316347;22;20003;-90
2023/07/30 00:09:46;;;;;;;6.50;3.25;;;;;;;20.03;61.41;99049.13;6264719;22;20005;-90
2023/07/30 00:12:12;;;;;;;3.92;2.78;;;;;;;19.91;60.99;99041.69;6291697;22;19998;-90
2023/07/30 00:14:39;;;;;;;5.10;3.00;;;;;;;19.91;61.06;99052.63;6291156;22;20003;-90
2023/07/30 00:17:05;;;;;;;5.57;2.80;;;;;;;19.86;61.26;99047.38;6341875;22;20453;-90
2023/07/30 00:19:31;;;;;;;6.57;2.70;;;;;;;19.85;61.60;99047.72;6265410;22;20058;-89
2023/07/30 00:21:56;;;;;;;4.55;2.72;;;;;;;19.81;61.88;99061.25;6316153;22;20019;-87
2023/07/30 00:24:22;;;;;;;6.60;2.90;;;;;;;19.56;62.10;99052.16;6263597;22;20052;-87
2023/07/30 00:26:47;;;;;;;3.72;2.58;;;;;;;19.39;62.36;99050.38;6264709;22;19999;-87
2023/07/30 00:29:13;;;;;;;3.83;2.75;;;;;;;19.29;62.64;99037.16;6262523;22;20014;-87
2023/07/30 00:31:39;;;;;;;3.42;2.38;;;;;;;19.45;62.99;99061.91;6290132;22;19998;-86
2023/07/30 00:34:05;;;;;;;4.00;2.60;;;;;;;19.41;63.61;99050.06;6289346;22;20064;-87
2023/07/30 00:36:30;;;;;;;4.30;2.67;;;;;;;19.22;64.13;99034.16;6264398;22;19999;-87
2023/07/30 00:38:56;;;;;;;4.80;2.65;;;;;;;19.18;63.71;99045.75;6263628;22;19999;-86
2023/07/30 00:41:22;;;;;;;3.42;2.53;;;;;;;19.22;64.24;99061.47;6263588;22;20006;-86
2023/07/30 00:43:47;;;;;;;3.38;2.63;;;;;;;19.17;64.21;99057.81;6264576;22;20066;-85
2023/07/30 00:46:13;;;;;;;3.90;2.88;;;;;;;19.20;64.37;99047.34;6264642;22;20429;-86
2023/07/30 00:48:39;;;;;;;4.00;2.53;;;;;;;19.24;64.28;99051.81;6289012;22;20010;-87
2023/07/30 00:51:05;;;;;;;6.95;3.03;;;;;;;19.20;64.24;99039.97;6263531;22;20015;-87
2023/07/30 00:53:31;;;;;;;6.90;2.70;;;;;;;19.25;64.38;99041.69;6288441;22;20006;-87
2023/07/30 00:55:58;;;;;;;6.55;2.70;;;;;;;19.34;64.26;99045.13;6263603;22;19998;-87
2023/07/30 00:58:25;;;;;;;4.80;2.45;;;;;;;19.28;64.20;99047.28;6289007;22;20059;-87
2023/07/30 01:00:52;;;;;;;4.22;2.83;;;;;;;19.21;64.55;99048.94;6341341;22;19998;-87
2023/07/30 01:03:18;;;;;;;3.47;2.75;;;;;;;19.00;64.63;99033.38;6263335;22;20013;-85
2023/07/30 01:05:45;;;;;;;3.28;2.20;;;;;;;18.97;64.63;99044.97;6288301;22;20038;-86
2023/07/30 01:08:11;;;;;;;6.60;2.95;;;;;;;18.89;65.05;99041.16;6287753;22;20090;-85
2023/07/30 01:10:36;;;;;;;4.25;2.72;;;;;;;18.85;65.36;99042.16;6288943;22;20367;-85
2023/07/30 01:13:03;;;;;;;4.57;2.65;;;;;;;18.73;65.75;99027.25;6261773;22;19996;-85
2023/07/30 01:15:29;;;;;;;6.65;3.20;;;;;;;18.82;65.85;99050.97;6287267;22;20026;-86
2023/07/30 01:17:55;;;;;;;4.03;2.63;;;;;;;18.75;65.55;99035.13;6313276;22;20468;-85
2023/07/30 01:20:21;;;;;;;5.75;2.90;;;;;;;18.76;65.75;99039.47;6287216;22;20007;-85
2023/07/30 01:22:48;;;;;;;3.58;2.50;;;;;;;18.65;65.85;99027.31;6263118;22;20010;-86
2023/07/30 01:25:16;;;;;;;3.70;2.65;;;;;;;18.74;66.39;99042.50;6314038;22;20030;-85
2023/07/30 01:27:46;;;;;;;4.30;2.97;;;;;;;18.71;65.96;99040.44;6261722;22;20002;-85
2023/07/30 01:30:30;;;;;;;5.93;2.60;;;;;;;18.65;66.00;99032.78;6263200;22;20003;-85
2023/07/30 01:32:56;;;;;;;5.40;2.92;;;;;;;18.61;66.10;99027.19;6341504;22;20055;-85
2023/07/30 01:35:27;;;;;;;5.43;2.90;;;;;;;18.55;66.31;99029.31;6261857;22;20002;-86
2023/07/30 01:37:53;;;;;;;5.63;2.92;;;;;;;18.59;66.18;99043.06;6287907;22;20591;-86
2023/07/30 01:40:18;;;;;;;7.28;3.03;;;;;;;18.56;66.32;99041.81;6262708;22;19998;-86
2023/07/30 01:42:43;;;;;;;5.10;2.50;;;;;;;18.50;66.35;99032.22;6313016;22;19994;-85
2023/07/30 01:45:12;;;;;;;3.42;2.53;;;;;;;18.41;66.90;99027.94;6262082;22;19999;-86
2023/07/30 01:47:37;;;;;;;6.18;2.85;;;;;;;18.36;66.62;99031.66;6261772;22;20360;-85
2023/07/30 01:50:03;;;;;;;11.07;3.25;;;;;;;18.29;66.81;99021.28;6288785;22;19999;-85
2023/07/30 01:52:29;;;;;;;4.00;2.70;;;;;;;18.36;66.39;99035.19;6261877;22;19999;-85
2023/07/30 01:54:56;;;;;;;4.05;3.00;;;;;;;18.23;67.37;99032.69;6243676;22;20038;-85
2023/07/30 01:57:21;;;;;;;7.97;4.05;;;;;;;18.08;67.44;99036.75;6308394;22;19999;-85
2023/07/30 01:59:49;;;;;;;6.85;3.53;;;;;;;18.10;67.34;99029.84;6259317;22;20031;-85
2023/07/30 02:02:15;;;;;;;8.70;3.28;;;;;;;18.11;67.61;99031.44;6261127;22;20425;-85
2023/07/30 02:04:41;;;;;;;4.55;3.03;;;;;;;18.09;67.34;99027.44;6313422;22;19999;-85
2023/07/30 02:07:07;;;;;;;8.05;3.45;;;;;;;18.12;67.39;99033.06;6262375;22;19994;-86
2023/07/30 02:09:32;;;;;;;8.15;3.13;;;;;;;18.05;67.45;99031.94;6313817;22;20056;-86
2023/07/30 02:11:58;;;;;;;4.50;3.20;;;;;;;18.09;67.82;99043.78;6261921;22;19994;-86
2023/07/30 02:14:24;;;;;;;3.72;2.70;;;;;;;17.97;67.74;99023.50;6287389;22;20341;-83
2023/07/30 02:16:50;;;;;;;3.70;2.67;;;;;;;17.87;67.91;99002.06;6314896;22;20029;-86
2023/07/30 02:19:18;;;;;;;3.15;2.45;;;;;;;18.01;67.80;99028.28;6289654;22;19991;-85
2023/07/30 02:21:44;;;;;;;4.80;2.80;;;;;;;17.95;67.88;99023.03;6289073;22;20028;-85
2023/07/30 02:24:11;;;;;;;4.05;3.05;;;;;;;17.92;68.01;99029.09;6263739;22;20024;-85
2023/07/30 02:26:38;;;;;;;3.97;2.95;;;;;;;18.03;68.33;99037.72;6342711;22;20029;-84
2023/07/30 02:29:07;;;;;;;4.88;3.03;;;;;;;18.04;68.01;99046.72;6289242;22;20034;-84
2023/07/30 02:31:32;;;;;;;5.78;3.30;;;;;;;17.90;68.41;99025.13;6315144;22;20086;-85
2023/07/30 02:33:58;;;;;;;6.00;3.33;;;;;;;17.97;68.74;99039.03;6263926;22;20425;-85
2023/07/30 02:36:24;;;;;;;6.70;3.70;;;;;;;17.92;68.34;99036.50;6289780;22;19999;-84
2023/07/30 02:38:49;;;;;;;6.32;4.13;;;;;;;17.95;68.72;99042.09;6262222;22;20006;-84
2023/07/30 02:41:15;;;;;;;6.05;3.92;;;;;;;17.84;68.82;99029.16;6263717;22;20005;-84
2023/07/30 02:43:41;;;;;;;5.57;3.55;;;;;;;17.90;68.58;99036.00;6264435;22;20081;-86
2023/07/30 02:46:07;;;;;;;5.38;3.78;;;;;;;17.86;69.14;99045.97;6314696;22;19999;-85
2023/07/30 02:48:33;;;;;;;7.18;4.15;;;;;;;17.80;68.92;99036.34;6288417;22;20057;-85
2023/07/30 02:50:59;;;;;;;11.57;4.10;;;;;;;17.83;68.72;99036.53;6313956;22;19998;-85
2023/07/30 02:53:25;;;;;;;6.53;3.85;;;;;;;17.81;69.05;99038.75;6289004;22;20041;-85
2023/07/30 02:55:53;;;;;;;4.40;3.65;;;;;;;17.81;69.23;99046.13;6263507;22;19998;-85
2023/07/30 02:58:19;;;;;;;6.82;3.78;;;;;;;17.70;69.27;99037.47;6314590;22;20006;-85
2023/07/30 03:00:45;;;;;;;10.70;4.10;;;;;;;17.75;69.22;99043.56;6314403;22;20003;-85
2023/07/30 03:03:11;;;;;;;5.78;4.00;;;;;;;17.74;69.52;99052.03;6289839;22;20056;-85
2023/07/30 03:05:37;;;;;;;8.52;3.35;;;;;;;17.68;69.63;99056.06;6289275;22;19998;-85
2023/07/30 03:08:03;;;;;;;9.70;4.37;;;;;;;17.57;69.54;99053.66;6314632;22;20017;-86
2023/07/30 03:10:28;;;;;;;7.25;4.35;;;;;;;17.54;70.24;99054.31;6262942;22;19995;-85
2023/07/30 03:12:54;;;;;;;9.30;4.90;;;;;;;17.55;69.93;99063.28;6288378;22;19991;-85
2023/07/30 03:15:19;;;;;;;6.53;4.63;;;;;;;17.51;69.95;99057.69;6289191;22;19999;-84
2023/07/30 03:17:45;;;;;;;7.43;5.55;;;;;;;17.56;70.23;99068.41;6262757;22;20018;-86
2023/07/30 03:20:10;;;;;;;6.70;4.60;;;;;;;17.50;69.88;99064.25;6263359;22;19998;-84
2023/07/30 03:22:36;;;;;;;7.60;4.90;;;;;;;17.54;70.00;99058.97;6263433;22;20426;-84
2023/07/30 03:25:01;;;;;;;10.85;6.20;;;;;;;17.55;70.12;99058.63;6263054;22;20349;-85
2023/07/30 03:27:27;;;;;;;9.55;5.75;;;;;;;17.68;70.41;99088.72;6263111;22;20067;-84
2023/07/30 03:29:52;;;;;;;10.55;5.85;;;;;;;17.62;70.00;99062.78;6289248;22;19999;-84
2023/07/30 03:32:18;;;;;;;8.75;4.93;;;;;;;17.54;69.65;99062.50;6288649;22;20452;-84
2023/07/30 03:34:43;;;;;;;8.90;4.28;;;;;;;17.56;70.10;99073.88;6288181;22;19999;-84
2023/07/30 03:37:12;;;;;;;7.30;3.92;;;;;;;17.46;70.05;99063.31;6289004;22;19995;-86
2023/07/30 03:39:38;;;;;;;9.02;4.50;;;;;;;17.45;70.21;99066.34;6263185;22;19999;-86
2023/07/30 03:42:03;;;;;;;12.68;4.72;;;;;;;17.54;69.84;99073.38;6262295;22;20003;-85
2023/07/30 03:44:31;;;;;;;11.20;5.00;;;;;;;17.54;70.05;99069.88;6287514;22;20378;-84
2023/07/30 03:46:57;;;;;;;6.43;4.88;;;;;;;17.55;69.77;99077.69;6264384;22;20005;-86
2023/07/30 03:49:22;;;;;;;8.38;5.50;;;;;;;17.55;70.18;99080.41;6288830;22;19999;-85
2023/07/30 03:51:47;;;;;;;8.77;5.43;;;;;;;17.52;70.18;99062.00;6263011;22;20007;-86
2023/07/30 03:54:13;;;;;;;11.02;5.25;;;;;;;17.53;70.00;99076.41;6263269;22;19999;-86
2023/07/30 03:56:39;;;;;;;8.73;5.07;;;;;;;17.60;69.83;99076.75;6262558;22;19995;-85
2023/07/30 03:59:04;;;;;;;10.60;5.40;;;;;;;17.62;69.78;99073.69;6262821;22;19999;-84
2023/07/30 04:01:30;;;;;;;13.30;6.15;;;;;;;17.73;69.47;99083.13;6262724;22;20006;-87
2023/07/30 04:03:58;;;;;;;11.00;7.45;;;;;;;17.88;68.99;99079.13;6264442;22;19999;-86
2023/07/30 04:06:33;;;;;;;10.13;6.32;;;;;;;18.07;68.67;99089.66;6263371;22;20006;-87
2023/07/30 04:08:58;;;;;;;8.05;6.10;;;;;;;18.07;68.21;99084.19;6262649;22;20025;-89
2023/07/30 04:11:24;;;;;;;106.25;56.15;;;;;;;18.31;68.03;99100.00;6273113;22;19999;-88
2023/07/30 04:13:58;;;;;;;11.77;6.63;;;;;;;18.23;67.89;99084.47;6294512;22;20005;-87
2023/07/30 04:16:24;;;;;;;7.45;4.97;;;;;;;18.29;67.66;99086.69;6265646;22;20333;-88
2023/07/30 04:18:49;;;;;;;9.50;4.80;;;;;;;18.28;67.09;99089.72;6227491;22;20022;-87
2023/07/30 04:21:15;;;;;;;6.63;4.47;;;;;;;18.28;66.06;99068.75;6228581;22;19999;-87
2023/07/30 04:23:41;;;;;;;5.28;3.50;;;;;;;18.45;64.35;99081.50;6202536;22;20007;-87
2023/07/30 04:26:06;;;;;;;5.50;3.80;;;;;;;18.61;63.96;99095.34;6228866;22;20034;-87
2023/07/30 04:28:32;;;;;;;5.07;3.80;;;;;;;18.80;63.07;99085.97;6228061;22;20054;-87
2023/07/30 04:30:57;;;;;;;7.80;3.95;;;;;;;18.96;62.49;99097.91;6228090;22;19999;-89
2023/07/30 04:33:23;;;;;;;4.75;3.55;;;;;;;19.08;62.13;99091.75;6203190;22;20007;-87
2023/07/30 04:35:48;;;;;;;4.47;3.83;;;;;;;19.14;62.13;99102.13;6227862;22;20037;-86
2023/07/30 04:38:14;;;;;;;6.22;4.00;;;;;;;19.21;62.11;99107.03;6227871;22;19999;-87
2023/07/30 04:40:39;;;;;;;6.05;3.25;;;;;;;19.17;62.32;99103.38;6227347;22;20058;-88
2023/07/30 04:43:04;;;;;;;4.95;3.55;;;;;;;19.30;61.94;99113.25;6227793;22;20003;-87
2023/07/30 04:45:30;;;;;;;7.68;3.53;;;;;;;19.33;62.04;99117.25;6228491;22;20430;-88
2023/07/30 04:47:56;;;;;;;5.28;3.83;;;;;;;19.38;61.50;99104.19;6227894;22;19999;-88
2023/07/30 04:50:24;;;;;;;6.30;3.67;;;;;;;19.44;61.39;99104.78;6227832;22;20004;-87
2023/07/30 04:52:50;;;;;;;5.63;3.35;;;;;;;19.48;61.35;99108.44;6202514;22;20007;-87
2023/07/30 04:55:15;;;;;;;8.65;3.67;;;;;;;19.56;61.81;99121.22;6227931;22;20311;-88
2023/07/30 04:57:41;;;;;;;6.93;3.45;;;;;;;19.62;61.30;99119.09;6228415;22;20000;-88
2023/07/30 05:00:07;;;;;;;4.90;3.20;;;;;;;19.62;60.76;99110.91;6201594;22;20418;-87
2023/07/30 05:02:32;;;;;;;6.90;3.50;;;;;;;19.69;60.47;99107.63;6203243;22;20006;-87
2023/07/30 05:04:58;;;;;;;5.25;3.25;;;;;;;19.81;60.78;99106.91;6203237;22;19996;-87
2023/07/30 05:07:24;;;;;;;5.38;3.65;;;;;;;19.88;60.16;99105.22;6227150;22;20000;-87
2023/07/30 05:09:49;;;;;;;4.95;3.08;;;;;;;19.92;60.24;99103.41;6227384;22;20004;-88
2023/07/30 05:12:15;;;;;;;5.03;3.15;;;;;;;20.06;58.90;99097.63;6226466;22;20000;-87
2023/07/30 05:14:40;;;;;;;5.07;3.38;;;;;;;20.19;58.57;99104.72;6228541;22;20322;-87
2023/07/30 05:17:06;;;;;;;5.45;3.75;;;;;;;20.29;58.58;99100.75;6212963;22;20094;-88
2023/07/30 05:19:32;;;;;;;3.97;3.17;;;;;;;20.36;57.57;99101.00;6232280;22;20056;-86
2023/07/30 05:21:59;;;;;;;8.10;2.85;;;;;;;20.45;57.25;99091.88;6233477;22;19999;-87
2023/07/30 05:24:24;;;;;;;5.35;3.40;;;;;;;20.62;57.49;99090.88;6258568;22;20486;-87
2023/07/30 05:26:50;;;;;;;5.07;3.35;;;;;;;20.66;56.90;99092.59;6258444;22;20011;-88
2023/07/30 05:29:18;;;;;;;4.55;3.30;;;;;;;20.67;56.70;99096.94;6257215;22;20008;-87
2023/07/30 05:31:44;;;;;;;4.65;3.13;;;;;;;20.86;56.52;99087.34;6257076;22;19999;-87
2023/07/30 05:34:09;;;;;;;4.78;3.20;;;;;;;20.94;56.50;99095.41;6231970;22;20022;-87
2023/07/30 05:36:35;;;;;;;4.47;3.03;;;;;;;20.95;55.86;99086.06;6258360;22;20003;-87
2023/07/30 05:39:00;;;;;;;6.78;3.10;;;;;;;21.08;56.07;99100.50;6232907;22;19991;-86
2023/07/30 05:41:26;;;;;;;4.97;3.00;;;;;;;21.16;56.22;99101.53;6232364;22;20033;-87
2023/07/30 05:43:51;;;;;;;4.80;3.25;;;;;;;21.32;54.52;99096.13;6231804;22;19999;-87
2023/07/30 05:46:17;;;;;;;3.53;2.97;;;;;;;21.54;53.77;99101.13;6232421;22;20003;-87
2023/07/30 05:48:42;;;;;;;4.05;3.13;;;;;;;21.71;53.74;99108.22;6232208;22;20007;-86
2023/07/30 05:51:08;;;;;;;5.55;3.88;;;;;;;21.74;53.55;99110.25;6234089;22;20003;-87
2023/07/30 05:53:33;;;;;;;7.03;3.17;;;;;;;21.82;54.27;99111.25;6262044;22;20003;-87
2023/07/30 05:55:59;;;;;;;6.50;3.72;;;;;;;21.89;53.94;99118.88;6260355;22;20033;-87
2023/07/30 05:58:24;;;;;;;7.10;3.67;;;;;;;21.97;53.52;99118.72;6260471;22;19999;-88
2023/07/30 06:00:50;;;;;;;10.95;3.65;;;;;;;22.14;53.41;99117.59;6259506;22;20003;-87
2023/07/30 06:03:15;;;;;;;6.72;3.00;;;;;;;22.32;52.97;99111.81;6259131;22;19995;-87
2023/07/30 06:05:41;;;;;;;6.07;3.40;;;;;;;22.37;52.99;99112.34;6259182;22;19999;-88
2023/07/30 06:08:07;;;;;;;5.63;3.80;;;;;;;22.43;51.88;99107.38;6234908;22;20007;-88
2023/07/30 06:10:40;;;;;;;5.88;3.50;;;;;;;22.51;51.76;99113.81;6234089;22;20010;-87
2023/07/30 06:13:05;;;;;;;4.63;3.35;;;;;;;22.53;50.93;99104.09;6261486;22;20052;-87
2023/07/30 06:15:31;;;;;;;3.92;3.28;;;;;;;22.66;51.09;99110.28;6259155;22;20003;-87
2023/07/30 06:17:57;;;;;;;6.10;3.70;;;;;;;22.75;51.61;99105.41;6253931;22;20085;-88
2023/07/30 06:20:22;;;;;;;6.03;3.90;;;;;;;22.90;50.24;99092.78;6229658;22;20003;-87
2023/07/30 06:22:48;;;;;;;7.05;4.45;;;;;;;23.11;49.46;99092.50;6228402;22;20438;-87
2023/07/30 06:25:13;;;;;;;7.85;5.20;;;;;;;23.25;49.61;99102.22;6229471;22;20000;-87
2023/07/30 06:27:39;;;;;;;7.00;5.50;;;;;;;23.25;49.73;99099.47;6233703;22;20015;-87
2023/07/30 06:30:05;;;;;;;6.10;5.50;;;;;;;23.40;49.44;99112.34;6220483;22;20008;-87
2023/07/30 06:32:31;;;;;;;8.57;6.07;;;;;;;23.60;48.76;99107.66;6213075;22;20000;-86
2023/07/30 06:34:56;;;;;;;7.93;7.13;;;;;;;23.69;48.23;99099.97;6219442;22;20100;-87
2023/07/30 06:37:26;;;;;;;7.18;6.22;;;;;;;23.66;48.11;99086.13;6245071;22;20008;-87
2023/07/30 06:39:52;;;;;;;9.85;6.20;;;;;;;23.72;47.61;99063.50;6296807;22;20003;-89
2023/07/30 06:42:18;;;;;;;11.48;5.57;;;;;;;24.03;47.18;99085.69;6206400;22;19999;-90
2023/07/30 06:44:43;;;;;;;6.40;5.28;;;;;;;24.08;47.55;99077.13;6205021;22;20031;-90
2023/07/30 06:47:09;;;;;;;7.78;5.68;;;;;;;24.28;46.77;99086.91;6230251;22;20000;-90
2023/07/30 06:49:34;;;;;;;9.75;5.47;;;;;;;24.33;46.13;99070.09;6205365;22;20342;-89
2023/07/30 06:52:00;;;;;;;7.20;5.40;;;;;;;24.53;46.46;99092.84;6230772;22;20510;-91
2023/07/30 06:54:25;;;;;;;12.13;5.32;;;;;;;24.63;45.82;99085.91;6255382;22;20000;-90
2023/07/30 06:56:53;;;;;;;8.00;4.80;;;;;;;24.58;45.76;99061.47;6207390;22;20006;-90
2023/07/30 06:59:19;;;;;;;8.65;5.00;;;;;;;24.84;45.15;99073.63;6205926;22;19996;-91
2023/07/30 07:01:44;;;;;;;6.63;3.90;;;;;;;25.06;43.48;99069.22;6203472;22;20427;-89
2023/07/30 07:04:10;;;;;;;6.22;3.80;;;;;;;25.16;42.84;99063.06;6229616;22;20057;-90
2023/07/30 07:06:36;;;;;;;6.13;4.15;;;;;;;25.26;42.98;99058.88;6229044;22;19995;-89
2023/07/30 07:09:05;;;;;;;5.25;3.75;;;;;;;25.32;43.93;99055.41;6228704;22;20089;-89
2023/07/30 07:11:30;;;;;;;5.00;3.80;;;;;;;25.50;43.27;99052.84;6229620;22;20093;-90
2023/07/30 07:13:56;;;;;;;5.88;3.40;;;;;;;25.64;42.69;99054.19;6203403;22;20401;-90
2023/07/30 07:16:21;;;;;;;4.28;2.85;;;;;;;25.84;41.49;99054.78;6203810;22;20437;-91
2023/07/30 07:18:48;;;;;;;6.43;2.97;;;;;;;25.96;41.46;99047.06;6231838;22;20465;-91
2023/07/30 07:21:14;;;;;;;6.50;3.15;;;;;;;26.15;41.85;99057.09;6259082;22;20061;-89
2023/07/30 07:23:39;;;;;;;5.72;2.80;;;;;;;26.28;41.45;99054.81;6232810;22;19996;-90
2023/07/30 07:26:05;;;;;;;8.13;3.47;;;;;;;26.42;40.04;99043.91;6233951;22;19999;-91
2023/07/30 07:28:33;;;;;;;4.85;2.60;;;;;;;26.54;38.75;99030.94;6258991;22;20019;-92
2023/07/30 07:30:59;;;;;;;3.63;2.63;;;;;;;26.70;38.49;99050.03;6233140;22;19999;-90
2023/07/30 07:33:24;;;;;;;5.18;2.65;;;;;;;26.76;39.08;99038.22;6232191;22;19999;-90
2023/07/30 07:35:50;;;;;;;3.30;2.40;;;;;;;26.89;39.30;99041.44;6258717;22;20064;-90
2023/07/30 07:38:16;;;;;;;4.13;2.60;;;;;;;26.80;39.16;99033.50;6259121;22;20034;-90
2023/07/30 07:40:41;;;;;;;6.55;3.10;;;;;;;26.88;37.04;99016.97;6232994;22;19999;-89
2023/07/30 07:43:07;;;;;;;5.63;3.20;;;;;;;27.10;36.48;99024.19;6232739;22;19999;-88
2023/07/30 07:45:33;;;;;;;4.18;3.20;;;;;;;27.15;36.91;99014.72;6232364;22;20353;-88
2023/07/30 07:47:58;;;;;;;4.88;2.95;;;;;;;27.37;35.54;99041.31;6232022;22;19999;-87
2023/07/30 07:50:26;;;;;;;5.35;2.35;;;;;;;27.42;35.13;99026.31;6232664;22;20034;-88
2023/07/30 07:52:52;;;;;;;3.92;2.17;;;;;;;27.64;35.20;99034.66;6232168;22;20031;-87
2023/07/30 07:55:17;;;;;;;4.43;2.40;;;;;;;27.78;33.90;99031.91;6232008;22;19995;-88
2023/07/30 07:57:43;;;;;;;4.97;2.30;;;;;;;27.80;36.92;99008.19;6232077;22;20007;-87
2023/07/30 08:00:09;;;;;;;5.15;2.58;;;;;;;27.96;35.91;99009.81;6232162;22;19991;-93
2023/07/30 08:02:37;;;;;;;5.65;2.50;;;;;;;28.08;34.47;99016.94;6257742;22;20033;-93
2023/07/30 08:05:03;;;;;;;4.97;2.42;;;;;;;28.10;33.34;99009.84;6233702;22;20005;-92
2023/07/30 08:07:28;;;;;;;4.53;1.95;;;;;;;28.16;33.47;99002.72;6232678;22;20000;-93
2023/07/30 08:09:54;;;;;;;3.17;2.00;;;;;;;28.35;32.76;99015.34;6232622;22;20010;-92
2023/07/30 08:12:20;;;;;;;4.72;1.98;;;;;;;28.44;33.13;99014.16;6233759;22;20026;-91
2023/07/30 08:14:45;;;;;;;3.03;1.95;;;;;;;28.59;32.69;99024.03;6231848;22;20052;-93
2023/07/30 08:17:11;;;;;;;3.17;1.85;;;;;;;28.64;31.95;99015.34;6222808;22;20015;-93
2023/07/30 08:19:36;;;;;;;3.33;2.20;;;;;;;28.66;32.18;99004.66;6251690;22;19999;-92
2023/07/30 08:22:02;;;;;;;4.07;2.05;;;;;;;28.76;33.36;99006.59;6251867;22;20002;-93
2023/07/30 08:24:27;;;;;;;3.42;1.90;;;;;;;28.95;33.07;99012.84;6253988;22;20335;-92
2023/07/30 08:26:53;;;;;;;8.82;2.95;;;;;;;29.02;32.72;99012.84;6227896;22;20007;-91
2023/07/30 08:29:19;;;;;;;4.28;2.08;;;;;;;29.07;33.26;99004.09;6227504;22;20067;-92
2023/07/30 08:31:45;;;;;;;4.25;2.47;;;;;;;29.10;29.99;99000.56;6253336;22;20053;-93
2023/07/30 08:34:10;;;;;;;3.60;2.30;;;;;;;29.23;29.99;99000.09;6252610;22;20000;-92
2023/07/30 08:36:42;;;;;;;4.75;1.83;;;;;;;29.48;29.66;99013.84;6252671;22;20003;-93
2023/07/30 08:39:08;;;;;;;4.75;1.67;;;;;;;29.41;29.62;98990.50;6254474;22;20394;-90
2023/07/30 08:41:34;;;;;;;4.65;1.90;;;;;;;29.57;29.27;98992.78;6284746;22;20086;-90
2023/07/30 08:43:59;;;;;;;2.55;1.65;;;;;;;29.75;29.11;99012.09;6253528;22;20046;-90
2023/07/30 08:46:27;;;;;;;2.00;1.50;;;;;;;29.75;28.30;98991.88;6252636;22;19999;-92
2023/07/30 08:49:07;;;;;;;3.40;2.03;;;;;;;29.80;27.93;98981.16;6255922;22;20003;-96
2023/07/30 08:51:36;;;;;;;2.60;1.42;;;;;;;29.84;28.00;98978.31;6258980;22;20098;-95
2023/07/30 08:54:02;;;;;;;3.00;1.50;;;;;;;29.90;29.09;98973.91;6229900;22;20007;-95
2023/07/30 08:56:36;;;;;;;3.20;1.55;;;;;;;29.93;28.91;98967.56;6253732;22;20007;-94
2023/07/30 08:59:03;;;;;;;3.75;2.00;;;;;;;30.11;29.15;98981.28;6262104;22;20000;-96
2023/07/30 09:01:31;;;;;;;3.78;2.17;;;;;;;30.20;29.45;98970.47;6262318;22;20008;-95
2023/07/30 09:03:58;;;;;;;3.75;2.20;;;;;;;30.35;29.28;98976.72;6259721;22;20071;-96
2023/07/30 09:06:42;;;;;;;4.93;2.00;;;;;;;30.32;27.79;98958.09;6258815;22;20019;-96
2023/07/30 09:09:12;;;;;;;3.65;1.90;;;;;;;30.47;28.36;98963.50;6257253;22;20432;-96
2023/07/30 09:11:40;;;;;;;3.08;1.77;;;;;;;30.56;27.56;98964.56;6236488;22;20007;-95
2023/07/30 09:14:45;;;;;;;5.72;2.38;;;;;;;30.71;27.89;98981.09;6231330;22;20348;-95
2023/07/30 09:17:31;;;;;;;2.10;1.50;;;;;;;30.62;26.93;98956.59;6266254;22;20030;-96
2023/07/30 09:19:59;;;;;;;2.80;1.65;;;;;;;30.81;26.78;98960.72;6263798;22;20025;-96
2023/07/30 09:22:33;;;;;;;2.80;1.67;;;;;;;30.82;27.01;98940.84;6287306;22;20003;-95
2023/07/30 09:25:03;;;;;;;3.00;1.95;;;;;;;30.88;26.83;98943.19;6263468;22;20007;-96
2023/07/30 09:27:30;;;;;;;3.65;1.70;;;;;;;31.00;26.96;98949.00;6260219;22;20003;-87
2023/07/30 09:29:56;;;;;;;3.80;1.85;;;;;;;31.20;26.95;98953.91;6280216;22;20011;-87
2023/07/30 09:32:32;;;;;;;4.03;2.03;;;;;;;31.20;25.75;98940.78;6280821;22;19999;-88
2023/07/30 09:35:07;;;;;;;2.75;1.80;;;;;;;31.32;26.60;98955.34;6255780;22;19999;-88
2023/07/30 09:37:37;;;;;;;3.00;1.80;;;;;;;31.18;25.54;98940.41;6255108;22;20066;-87
2023/07/30 09:40:07;;;;;;;2.77;1.40;;;;;;;31.19;25.86;98919.75;6255925;22;20057;-88
2023/07/30 09:42:39;;;;;;;2.67;1.67;;;;;;;31.35;25.43;98932.22;6255372;22;20429;-87
2023/07/30 09:45:07;;;;;;;3.30;1.63;;;;;;;31.47;24.81;98931.66;6279757;22;20418;-88
2023/07/30 09:47:33;;;;;;;5.68;1.92;;;;;;;31.48;25.15;98938.81;6255877;22;20472;-87
2023/07/30 09:50:00;;;;;;;2.47;1.70;;;;;;;31.44;24.97;98928.94;6261776;22;20437;-87
2023/07/30 09:52:26;;;;;;;2.40;1.50;;;;;;;31.51;25.39;98926.06;6261757;22;19995;-87
2023/07/30 09:54:52;;;;;;;2.45;1.70;;;;;;;31.58;24.76;98929.50;6261810;22;20037;-86
2023/07/30 09:57:17;;;;;;;6.25;1.70;;;;;;;31.42;26.12;98916.22;6261508;22;19999;-87
2023/07/30 09:59:43;;;;;;;3.97;1.80;;;;;;;31.51;26.73;98915.72;6263529;22;20115;-87
2023/07/30 10:02:09;;;;;;;3.33;1.90;;;;;;;31.50;26.10;98900.22;6261386;22;20030;-86
2023/07/30 10:04:34;;;;;;;2.45;1.60;;;;;;;31.64;26.41;98913.13;6260406;22;20074;-86
2023/07/30 10:07:03;;;;;;;2.53;1.50;;;;;;;31.51;26.03;98895.44;6260625;22;20006;-86
2023/07/30 10:09:30;;;;;;;2.78;1.80;;;;;;;31.66;26.77;98893.22;6261528;22;20025;-86
2023/07/30 10:11:56;;;;;;;4.38;2.38;;;;;;;31.79;26.20;98902.50;6261151;22;20093;-88
2023/07/30 10:14:23;;;;;;;6.38;1.73;;;;;;;31.88;25.87;98888.84;6261827;22;20338;-86
2023/07/30 10:16:55;;;;;;;3.67;1.50;;;;;;;32.03;24.64;98894.19;6285744;22;20018;-87
2023/07/30 10:19:27;;;;;;;2.45;1.65;;;;;;;32.05;23.75;98902.91;6260992;22;20421;-86
2023/07/30 10:22:13;;;;;;;2.53;1.85;;;;;;;31.84;23.77;98874.19;6288663;22;20007;-86
2023/07/30 10:24:39;;;;;;;3.40;1.88;;;;;;;32.06;23.93;98887.75;6302367;22;20082;-86
2023/07/30 10:27:09;;;;;;;2.70;1.63;;;;;;;31.98;23.54;98879.50;6260853;22;20044;-87
2023/07/30 10:29:41;;;;;;;1.83;1.40;;;;;;;31.89;23.77;98872.91;6261100;22;20118;-86
2023/07/30 10:32:07;;;;;;;3.35;1.70;;;;;;;31.98;23.48;98881.50;6260239;22;20436;-87
2023/07/30 10:34:46;;;;;;;2.47;1.80;;;;;;;32.01;23.55;98873.09;6261623;22;19999;-87
2023/07/30 10:37:17;;;;;;;2.20;1.60;;;;;;;32.19;24.37;98874.78;6287607;22;20002;-87
2023/07/30 10:39:43;;;;;;;;;;;;;;;32.26;23.53;98885.00;6288978;22;19999;-86
2023/07/30 10:42:08;;;;;;;3.55;1.55;;;;;;;32.28;24.10;98869.44;6288345;22;19952;-87
2023/07/30 10:44:35;;;;;;;2.55;1.63;;;;;;;32.47;24.02;98876.22;6263078;22;20003;-88
2023/07/30 10:47:02;;;;;;;2.70;1.55;;;;;;;32.55;23.12;98871.31;6263145;22;20010;-86
2023/07/30 10:49:28;;;;;;;3.95;2.40;;;;;;;32.63;23.10;98866.38;6263138;22;20085;-86
2023/07/30 10:51:54;;;;;;;2.50;1.50;;;;;;;32.76;22.91;98870.84;6289289;22;20032;-87
2023/07/30 10:54:20;;;;;;;2.42;1.38;;;;;;;32.78;22.04;98867.63;6263359;22;20002;-87
2023/07/30 10:56:46;;;;;;;2.10;1.30;;;;;;;32.76;21.28;98870.84;6267599;22;20028;-94
2023/07/30 10:59:19;;;;;;;2.22;1.42;;;;;;;32.73;21.76;98863.34;6268661;22;19998;-94
2023/07/30 11:01:50;;;;;;;3.28;1.75;;;;;;;32.76;22.68;98851.31;6269245;22;20006;-96
2023/07/30 11:04:21;;;;;;;2.00;1.48;;;;;;;32.89;22.87;98848.66;6266920;22;19998;-96
2023/07/30 11:06:48;;;;;;;2.00;1.50;;;;;;;33.06;22.38;98866.22;6268427;22;19990;-96
2023/07/30 11:09:21;;;;;;;2.35;1.42;;;;;;;33.01;21.99;98853.53;6268888;22;20006;-96
2023/07/30 11:11:50;;;;;;;2.15;1.30;;;;;;;33.22;19.47;98871.84;6266814;22;20345;-96
2023/07/30 11:14:22;;;;;;;1.90;1.30;;;;;;;33.07;19.21;98845.44;6267840;22;20006;-96
2023/07/30 11:17:02;;;;;;;2.40;1.40;;;;;;;33.05;20.00;98836.72;6268686;22;20025;-96
2023/07/30 11:19:33;;;;;;;2.47;1.52;;;;;;;33.07;20.08;98845.44;6291673;22;20021;-95
2023/07/30 11:22:09;;;;;;;2.17;1.45;;;;;;;33.05;20.33;98828.38;6268303;22;20003;-96
2023/07/30 11:24:35;;;;;;;1.92;1.38;;;;;;;33.02;20.31;98829.25;6270411;22;20018;-96
2023/07/30 11:27:01;;;;;;;2.00;1.20;;;;;;;33.10;19.98;98843.81;6270251;22;20030;-96
2023/07/30 11:29:27;;;;;;;2.38;1.33;;;;;;;33.04;19.52;98832.38;6268684;22;20010;-95
2023/07/30 11:32:06;;;;;;;1.80;1.30;;;;;;;32.92;19.03;98819.91;6272169;22;20002;-96